sensor_id;sensor_type;location;lat;lon;timestamp;P1;durP1;ratioP1;P2;durP2;ratioP2
84138;SDS011;74250;51.528;6.748;2024-02-15T00:01:03;15.50;;;10.57;;
84138;SDS011;74250;51.528;6.748;2024-02-15T00:03:29;18.25;;;10.73;;
84138;SDS011;74250;51.528;6.748;2024-02-15T00:05:56;13.63;;;10.15;;
84138;SDS011;74250;51.528;6.748;2024-02-15T00:08:21;16.23;;;11.05;;
84138;SDS011;74250;51.528;6.748;2024-02-15T00:10:49;15.05;;;9.15;;
84138;SDS011;74250;51.528;6.748;2024-02-15T00:13:17;15.23;;;9.18;;
84138;SDS011;74250;51.528;6.748;2024-02-15T00:15:47;16.40;;;9.68;;
84138;SDS011;74250;51.528;6.748;2024-02-15T00:18:13;16.25;;;10.02;;
84138;SDS011;74250;51.528;6.748;2024-02-15T00:20:39;15.40;;;9.18;;
84138;SDS011;74250;51.528;6.748;2024-02-15T00:23:04;16.23;;;10.77;;
84138;SDS011;74250;51.528;6.748;2024-02-15T00:25:31;12.95;;;8.57;;
84138;SDS011;74250;51.528;6.748;2024-02-15T00:27:56;19.90;;;11.32;;
84138;SDS011;74250;51.528;6.748;2024-02-15T00:30:23;16.55;;;10.52;;
84138;SDS011;74250;51.528;6.748;2024-02-15T00:35:14;18.08;;;10.00;;
84138;SDS011;74250;51.528;6.748;2024-02-15T00:37:42;15.68;;;9.68;;
84138;SDS011;74250;51.528;6.748;2024-02-15T00:40:08;14.35;;;10.20;;
84138;SDS011;74250;51.528;6.748;2024-02-15T00:42:35;16.70;;;10.68;;
84138;SDS011;74250;51.528;6.748;2024-02-15T00:45:01;16.52;;;9.57;;
84138;SDS011;74250;51.528;6.748;2024-02-15T00:47:28;14.30;;;9.25;;
84138;SDS011;74250;51.528;6.748;2024-02-15T00:49:56;14.10;;;9.18;;
84138;SDS011;74250;51.528;6.748;2024-02-15T00:52:21;17.05;;;9.40;;
84138;SDS011;74250;51.528;6.748;2024-02-15T00:54:46;13.35;;;8.50;;
84138;SDS011;74250;51.528;6.748;2024-02-15T00:57:12;13.95;;;7.00;;
84138;SDS011;74250;51.528;6.748;2024-02-15T00:59:38;16.13;;;8.05;;
84138;SDS011;74250;51.528;6.748;2024-02-15T01:02:03;15.48;;;8.88;;
84138;SDS011;74250;51.528;6.748;2024-02-15T01:04:30;12.10;;;8.35;;
84138;SDS011;74250;51.528;6.748;2024-02-15T01:06:55;12.45;;;9.13;;
84138;SDS011;74250;51.528;6.748;2024-02-15T01:09:24;14.73;;;8.15;;
84138;SDS011;74250;51.528;6.748;2024-02-15T01:11:49;18.60;;;9.38;;
84138;SDS011;74250;51.528;6.748;2024-02-15T01:14:14;19.05;;;10.18;;
84138;SDS011;74250;51.528;6.748;2024-02-15T01:16:40;19.65;;;10.23;;
84138;SDS011;74250;51.528;6.748;2024-02-15T01:19:10;17.98;;;9.77;;
84138;SDS011;74250;51.528;6.748;2024-02-15T01:21:35;23.50;;;9.75;;
84138;SDS011;74250;51.528;6.748;2024-02-15T01:24:01;17.60;;;10.65;;
84138;SDS011;74250;51.528;6.748;2024-02-15T01:26:29;17.17;;;8.15;;
84138;SDS011;74250;51.528;6.748;2024-02-15T01:28:57;16.85;;;9.27;;
84138;SDS011;74250;51.528;6.748;2024-02-15T01:31:22;19.85;;;10.38;;
84138;SDS011;74250;51.528;6.748;2024-02-15T01:33:48;19.80;;;8.43;;
84138;SDS011;74250;51.528;6.748;2024-02-15T01:36:16;15.40;;;8.80;;
84138;SDS011;74250;51.528;6.748;2024-02-15T01:38:42;18.20;;;8.90;;
84138;SDS011;74250;51.528;6.748;2024-02-15T01:41:08;17.10;;;8.88;;
84138;SDS011;74250;51.528;6.748;2024-02-15T01:43:37;20.13;;;9.60;;
84138;SDS011;74250;51.528;6.748;2024-02-15T01:46:08;18.92;;;11.70;;
84138;SDS011;74250;51.528;6.748;2024-02-15T01:48:35;20.65;;;8.80;;
84138;SDS011;74250;51.528;6.748;2024-02-15T01:51:01;17.33;;;9.00;;
84138;SDS011;74250;51.528;6.748;2024-02-15T01:53:26;17.33;;;10.07;;
84138;SDS011;74250;51.528;6.748;2024-02-15T01:55:52;16.25;;;9.52;;
84138;SDS011;74250;51.528;6.748;2024-02-15T01:58:22;16.42;;;8.43;;
84138;SDS011;74250;51.528;6.748;2024-02-15T02:00:48;22.85;;;9.00;;
84138;SDS011;74250;51.528;6.748;2024-02-15T02:03:14;19.00;;;9.98;;
84138;SDS011;74250;51.528;6.748;2024-02-15T02:05:44;17.63;;;11.02;;
84138;SDS011;74250;51.528;6.748;2024-02-15T02:08:10;22.30;;;10.02;;
84138;SDS011;74250;51.528;6.748;2024-02-15T02:10:36;21.33;;;10.50;;
84138;SDS011;74250;51.528;6.748;2024-02-15T02:13:02;21.02;;;9.55;;
84138;SDS011;74250;51.528;6.748;2024-02-15T02:15:28;22.77;;;10.80;;
84138;SDS011;74250;51.528;6.748;2024-02-15T02:17:56;23.73;;;10.65;;
84138;SDS011;74250;51.528;6.748;2024-02-15T02:20:23;24.40;;;11.40;;
84138;SDS011;74250;51.528;6.748;2024-02-15T02:22:48;20.55;;;8.13;;
84138;SDS011;74250;51.528;6.748;2024-02-15T02:25:17;19.20;;;9.13;;
84138;SDS011;74250;51.528;6.748;2024-02-15T02:27:45;20.52;;;10.35;;
84138;SDS011;74250;51.528;6.748;2024-02-15T02:30:12;26.45;;;8.77;;
84138;SDS011;74250;51.528;6.748;2024-02-15T02:32:44;18.80;;;10.02;;
84138;SDS011;74250;51.528;6.748;2024-02-15T02:35:13;19.58;;;9.05;;
84138;SDS011;74250;51.528;6.748;2024-02-15T02:40:05;15.47;;;10.10;;
84138;SDS011;74250;51.528;6.748;2024-02-15T02:42:34;23.70;;;11.55;;
84138;SDS011;74250;51.528;6.748;2024-02-15T02:45:25;19.25;;;10.77;;
84138;SDS011;74250;51.528;6.748;2024-02-15T02:47:51;17.73;;;9.00;;
84138;SDS011;74250;51.528;6.748;2024-02-15T02:50:17;20.25;;;9.70;;
84138;SDS011;74250;51.528;6.748;2024-02-15T02:52:43;18.98;;;10.50;;
84138;SDS011;74250;51.528;6.748;2024-02-15T02:55:09;17.73;;;9.20;;
84138;SDS011;74250;51.528;6.748;2024-02-15T02:57:35;21.25;;;6.57;;
84138;SDS011;74250;51.528;6.748;2024-02-15T03:00:05;15.85;;;9.77;;
84138;SDS011;74250;51.528;6.748;2024-02-15T03:02:33;18.83;;;8.20;;
84138;SDS011;74250;51.528;6.748;2024-02-15T03:05:05;18.10;;;8.60;;
84138;SDS011;74250;51.528;6.748;2024-02-15T03:07:37;15.80;;;10.30;;
84138;SDS011;74250;51.528;6.748;2024-02-15T03:10:04;18.77;;;9.00;;
84138;SDS011;74250;51.528;6.748;2024-02-15T03:12:33;18.52;;;9.15;;
84138;SDS011;74250;51.528;6.748;2024-02-15T03:15:01;24.33;;;10.10;;
84138;SDS011;74250;51.528;6.748;2024-02-15T03:17:32;22.63;;;7.75;;
84138;SDS011;74250;51.528;6.748;2024-02-15T03:19:59;19.25;;;7.82;;
84138;SDS011;74250;51.528;6.748;2024-02-15T03:22:25;21.02;;;7.78;;
84138;SDS011;74250;51.528;6.748;2024-02-15T03:24:54;21.77;;;8.20;;
84138;SDS011;74250;51.528;6.748;2024-02-15T03:27:19;25.15;;;8.32;;
84138;SDS011;74250;51.528;6.748;2024-02-15T03:29:48;25.17;;;8.73;;
84138;SDS011;74250;51.528;6.748;2024-02-15T03:32:13;17.08;;;8.55;;
84138;SDS011;74250;51.528;6.748;2024-02-15T03:34:38;22.65;;;11.32;;
84138;SDS011;74250;51.528;6.748;2024-02-15T03:37:04;22.88;;;8.65;;
84138;SDS011;74250;51.528;6.748;2024-02-15T03:39:30;21.13;;;8.80;;
84138;SDS011;74250;51.528;6.748;2024-02-15T03:41:55;24.75;;;11.02;;
84138;SDS011;74250;51.528;6.748;2024-02-15T03:44:25;22.80;;;10.63;;
84138;SDS011;74250;51.528;6.748;2024-02-15T03:46:51;22.30;;;10.20;;
84138;SDS011;74250;51.528;6.748;2024-02-15T03:49:17;24.98;;;11.27;;
84138;SDS011;74250;51.528;6.748;2024-02-15T03:51:43;16.15;;;8.02;;
84138;SDS011;74250;51.528;6.748;2024-02-15T03:54:10;16.65;;;8.15;;
84138;SDS011;74250;51.528;6.748;2024-02-15T03:56:35;17.67;;;6.68;;
84138;SDS011;74250;51.528;6.748;2024-02-15T04:01:29;22.38;;;9.10;;
84138;SDS011;74250;51.528;6.748;2024-02-15T04:03:58;36.35;;;17.23;;
84138;SDS011;74250;51.528;6.748;2024-02-15T04:06:24;18.10;;;8.77;;
84138;SDS011;74250;51.528;6.748;2024-02-15T04:08:51;16.25;;;8.05;;
84138;SDS011;74250;51.528;6.748;2024-02-15T04:11:17;18.83;;;8.98;;
84138;SDS011;74250;51.528;6.748;2024-02-15T04:13:44;16.05;;;8.80;;
84138;SDS011;74250;51.528;6.748;2024-02-15T04:16:10;18.67;;;11.38;;
84138;SDS011;74250;51.528;6.748;2024-02-15T04:18:35;15.20;;;9.68;;
84138;SDS011;74250;51.528;6.748;2024-02-15T04:21:02;19.80;;;10.57;;
84138;SDS011;74250;51.528;6.748;2024-02-15T04:23:30;17.83;;;10.00;;
84138;SDS011;74250;51.528;6.748;2024-02-15T04:25:56;15.73;;;8.27;;
84138;SDS011;74250;51.528;6.748;2024-02-15T04:28:22;16.27;;;8.38;;
84138;SDS011;74250;51.528;6.748;2024-02-15T04:30:47;16.10;;;8.00;;
84138;SDS011;74250;51.528;6.748;2024-02-15T04:33:13;16.42;;;7.25;;
84138;SDS011;74250;51.528;6.748;2024-02-15T04:35:40;15.77;;;6.70;;
84138;SDS011;74250;51.528;6.748;2024-02-15T04:38:07;19.88;;;9.60;;
84138;SDS011;74250;51.528;6.748;2024-02-15T04:40:34;15.70;;;7.10;;
84138;SDS011;74250;51.528;6.748;2024-02-15T04:43:00;13.10;;;7.95;;
84138;SDS011;74250;51.528;6.748;2024-02-15T04:45:29;18.40;;;8.13;;
84138;SDS011;74250;51.528;6.748;2024-02-15T04:47:57;14.00;;;7.63;;
84138;SDS011;74250;51.528;6.748;2024-02-15T04:50:26;16.88;;;6.45;;
84138;SDS011;74250;51.528;6.748;2024-02-15T04:52:52;15.93;;;6.00;;
84138;SDS011;74250;51.528;6.748;2024-02-15T04:55:17;12.05;;;6.75;;
84138;SDS011;74250;51.528;6.748;2024-02-15T04:57:42;14.48;;;7.50;;
84138;SDS011;74250;51.528;6.748;2024-02-15T05:00:08;13.27;;;6.95;;
84138;SDS011;74250;51.528;6.748;2024-02-15T05:02:35;14.35;;;8.00;;
84138;SDS011;74250;51.528;6.748;2024-02-15T05:05:05;21.00;;;8.95;;
84138;SDS011;74250;51.528;6.748;2024-02-15T05:07:34;23.80;;;9.43;;
84138;SDS011;74250;51.528;6.748;2024-02-15T05:10:02;20.42;;;9.50;;
84138;SDS011;74250;51.528;6.748;2024-02-15T05:12:31;14.70;;;6.63;;
84138;SDS011;74250;51.528;6.748;2024-02-15T05:14:56;10.88;;;5.85;;
84138;SDS011;74250;51.528;6.748;2024-02-15T05:17:22;13.13;;;5.75;;
84138;SDS011;74250;51.528;6.748;2024-02-15T05:19:47;11.65;;;5.00;;
84138;SDS011;74250;51.528;6.748;2024-02-15T05:22:12;13.10;;;5.18;;
84138;SDS011;74250;51.528;6.748;2024-02-15T05:24:38;12.38;;;5.28;;
84138;SDS011;74250;51.528;6.748;2024-02-15T05:27:04;9.60;;;5.47;;
84138;SDS011;74250;51.528;6.748;2024-02-15T05:29:29;13.20;;;4.78;;
84138;SDS011;74250;51.528;6.748;2024-02-15T05:31:58;11.98;;;6.18;;
84138;SDS011;74250;51.528;6.748;2024-02-15T05:34:24;12.93;;;4.97;;
84138;SDS011;74250;51.528;6.748;2024-02-15T05:36:51;12.40;;;5.22;;
84138;SDS011;74250;51.528;6.748;2024-02-15T05:39:17;15.15;;;5.60;;
84138;SDS011;74250;51.528;6.748;2024-02-15T05:41:46;13.50;;;6.80;;
84138;SDS011;74250;51.528;6.748;2024-02-15T05:44:11;14.35;;;6.80;;
84138;SDS011;74250;51.528;6.748;2024-02-15T05:46:38;14.48;;;7.47;;
84138;SDS011;74250;51.528;6.748;2024-02-15T05:49:05;14.15;;;7.13;;
84138;SDS011;74250;51.528;6.748;2024-02-15T05:51:30;14.35;;;7.03;;
84138;SDS011;74250;51.528;6.748;2024-02-15T05:53:56;21.17;;;8.88;;
84138;SDS011;74250;51.528;6.748;2024-02-15T05:56:24;16.42;;;8.23;;
84138;SDS011;74250;51.528;6.748;2024-02-15T05:58:51;18.23;;;5.75;;
84138;SDS011;74250;51.528;6.748;2024-02-15T06:01:17;19.45;;;8.10;;
84138;SDS011;74250;51.528;6.748;2024-02-15T06:03:42;20.02;;;9.43;;
84138;SDS011;74250;51.528;6.748;2024-02-15T06:06:09;17.75;;;9.13;;
84138;SDS011;74250;51.528;6.748;2024-02-15T06:08:36;20.90;;;9.85;;
84138;SDS011;74250;51.528;6.748;2024-02-15T06:11:02;17.35;;;7.43;;
84138;SDS011;74250;51.528;6.748;2024-02-15T06:13:48;16.75;;;7.72;;
84138;SDS011;74250;51.528;6.748;2024-02-15T06:16:14;12.13;;;7.75;;
84138;SDS011;74250;51.528;6.748;2024-02-15T06:18:40;14.60;;;7.85;;
84138;SDS011;74250;51.528;6.748;2024-02-15T06:21:06;15.23;;;7.57;;
84138;SDS011;74250;51.528;6.748;2024-02-15T06:23:31;13.60;;;7.05;;
84138;SDS011;74250;51.528;6.748;2024-02-15T06:25:58;10.77;;;6.35;;
84138;SDS011;74250;51.528;6.748;2024-02-15T06:28:25;11.55;;;6.68;;
84138;SDS011;74250;51.528;6.748;2024-02-15T06:31:10;18.70;;;7.88;;
84138;SDS011;74250;51.528;6.748;2024-02-15T06:33:54;18.77;;;7.15;;
84138;SDS011;74250;51.528;6.748;2024-02-15T06:36:39;15.15;;;7.32;;
84138;SDS011;74250;51.528;6.748;2024-02-15T06:39:23;21.42;;;8.68;;
84138;SDS011;74250;51.528;6.748;2024-02-15T06:42:25;19.67;;;7.68;;
84138;SDS011;74250;51.528;6.748;2024-02-15T06:44:51;15.15;;;8.07;;
84138;SDS011;74250;51.528;6.748;2024-02-15T06:47:17;12.77;;;5.97;;
84138;SDS011;74250;51.528;6.748;2024-02-15T06:49:45;18.55;;;6.97;;
84138;SDS011;74250;51.528;6.748;2024-02-15T06:52:15;14.25;;;6.47;;
84138;SDS011;74250;51.528;6.748;2024-02-15T06:54:41;15.27;;;7.45;;
84138;SDS011;74250;51.528;6.748;2024-02-15T06:57:07;15.57;;;8.48;;
84138;SDS011;74250;51.528;6.748;2024-02-15T06:59:32;13.57;;;7.13;;
84138;SDS011;74250;51.528;6.748;2024-02-15T07:01:59;21.80;;;7.28;;
84138;SDS011;74250;51.528;6.748;2024-02-15T07:04:25;24.20;;;7.60;;
84138;SDS011;74250;51.528;6.748;2024-02-15T07:06:51;19.63;;;8.00;;
84138;SDS011;74250;51.528;6.748;2024-02-15T07:09:19;12.77;;;7.60;;
84138;SDS011;74250;51.528;6.748;2024-02-15T07:11:45;11.90;;;6.95;;
84138;SDS011;74250;51.528;6.748;2024-02-15T07:14:11;10.75;;;5.38;;
84138;SDS011;74250;51.528;6.748;2024-02-15T07:16:38;11.43;;;5.28;;
84138;SDS011;74250;51.528;6.748;2024-02-15T07:19:03;8.45;;;4.55;;
84138;SDS011;74250;51.528;6.748;2024-02-15T07:21:28;7.68;;;3.60;;
84138;SDS011;74250;51.528;6.748;2024-02-15T07:23:54;7.45;;;3.45;;
84138;SDS011;74250;51.528;6.748;2024-02-15T07:26:21;7.50;;;3.38;;
84138;SDS011;74250;51.528;6.748;2024-02-15T07:28:53;7.68;;;4.68;;
84138;SDS011;74250;51.528;6.748;2024-02-15T07:31:20;9.25;;;3.33;;
84138;SDS011;74250;51.528;6.748;2024-02-15T07:33:50;9.13;;;5.07;;
84138;SDS011;74250;51.528;6.748;2024-02-15T07:36:19;8.70;;;3.47;;
84138;SDS011;74250;51.528;6.748;2024-02-15T07:38:46;8.95;;;5.07;;
84138;SDS011;74250;51.528;6.748;2024-02-15T07:41:13;8.65;;;5.32;;
84138;SDS011;74250;51.528;6.748;2024-02-15T07:43:51;8.65;;;4.30;;
84138;SDS011;74250;51.528;6.748;2024-02-15T07:46:21;9.55;;;5.63;;
84138;SDS011;74250;51.528;6.748;2024-02-15T07:48:47;8.13;;;4.93;;
84138;SDS011;74250;51.528;6.748;2024-02-15T07:51:13;8.40;;;3.38;;
84138;SDS011;74250;51.528;6.748;2024-02-15T07:53:40;17.27;;;5.60;;
84138;SDS011;74250;51.528;6.748;2024-02-15T07:56:06;11.65;;;6.60;;
84138;SDS011;74250;51.528;6.748;2024-02-15T07:58:32;12.07;;;4.60;;
84138;SDS011;74250;51.528;6.748;2024-02-15T08:00:57;11.93;;;8.45;;
84138;SDS011;74250;51.528;6.748;2024-02-15T08:03:24;13.68;;;6.85;;
84138;SDS011;74250;51.528;6.748;2024-02-15T08:05:50;10.13;;;5.93;;
84138;SDS011;74250;51.528;6.748;2024-02-15T08:08:17;13.55;;;6.15;;
84138;SDS011;74250;51.528;6.748;2024-02-15T08:10:43;11.20;;;6.13;;
84138;SDS011;74250;51.528;6.748;2024-02-15T08:13:08;12.38;;;6.30;;
84138;SDS011;74250;51.528;6.748;2024-02-15T08:15:34;9.80;;;3.38;;
84138;SDS011;74250;51.528;6.748;2024-02-15T08:18:00;12.38;;;6.70;;
84138;SDS011;74250;51.528;6.748;2024-02-15T08:20:30;13.73;;;6.75;;
84138;SDS011;74250;51.528;6.748;2024-02-15T08:22:56;13.70;;;5.03;;
84138;SDS011;74250;51.528;6.748;2024-02-15T08:25:24;16.35;;;6.53;;
84138;SDS011;74250;51.528;6.748;2024-02-15T08:27:50;14.57;;;6.35;;
84138;SDS011;74250;51.528;6.748;2024-02-15T08:30:16;18.70;;;9.00;;
84138;SDS011;74250;51.528;6.748;2024-02-15T08:32:42;17.73;;;7.65;;
84138;SDS011;74250;51.528;6.748;2024-02-15T08:35:08;17.25;;;10.10;;
84138;SDS011;74250;51.528;6.748;2024-02-15T08:37:35;14.95;;;9.15;;
84138;SDS011;74250;51.528;6.748;2024-02-15T08:40:10;12.65;;;6.75;;
84138;SDS011;74250;51.528;6.748;2024-02-15T08:42:40;9.95;;;4.20;;
84138;SDS011;74250;51.528;6.748;2024-02-15T08:45:06;13.20;;;4.03;;
84138;SDS011;74250;51.528;6.748;2024-02-15T08:47:34;14.13;;;6.65;;
84138;SDS011;74250;51.528;6.748;2024-02-15T08:50:02;17.48;;;6.97;;
84138;SDS011;74250;51.528;6.748;2024-02-15T08:52:28;16.85;;;7.90;;
84138;SDS011;74250;51.528;6.748;2024-02-15T08:54:54;10.25;;;5.93;;
84138;SDS011;74250;51.528;6.748;2024-02-15T09:00:23;12.18;;;5.50;;
84138;SDS011;74250;51.528;6.748;2024-02-15T09:02:51;11.68;;;4.85;;
84138;SDS011;74250;51.528;6.748;2024-02-15T09:05:17;7.38;;;6.00;;
84138;SDS011;74250;51.528;6.748;2024-02-15T09:07:44;9.77;;;5.45;;
84138;SDS011;74250;51.528;6.748;2024-02-15T09:10:12;15.05;;;10.30;;
84138;SDS011;74250;51.528;6.748;2024-02-15T09:12:39;15.57;;;6.47;;
84138;SDS011;74250;51.528;6.748;2024-02-15T09:15:08;8.57;;;4.75;;
84138;SDS011;74250;51.528;6.748;2024-02-15T09:17:35;14.48;;;10.50;;
84138;SDS011;74250;51.528;6.748;2024-02-15T09:20:05;9.88;;;7.07;;
84138;SDS011;74250;51.528;6.748;2024-02-15T09:22:33;13.90;;;8.95;;
84138;SDS011;74250;51.528;6.748;2024-02-15T09:24:58;14.07;;;9.65;;
84138;SDS011;74250;51.528;6.748;2024-02-15T09:27:24;15.18;;;10.10;;
84138;SDS011;74250;51.528;6.748;2024-02-15T09:29:49;12.82;;;6.15;;
84138;SDS011;74250;51.528;6.748;2024-02-15T09:32:14;7.68;;;5.15;;
84138;SDS011;74250;51.528;6.748;2024-02-15T09:34:40;8.40;;;4.40;;
84138;SDS011;74250;51.528;6.748;2024-02-15T09:37:06;6.80;;;3.50;;
84138;SDS011;74250;51.528;6.748;2024-02-15T09:39:32;10.25;;;7.13;;
84138;SDS011;74250;51.528;6.748;2024-02-15T09:41:57;7.30;;;4.25;;
84138;SDS011;74250;51.528;6.748;2024-02-15T09:44:26;6.63;;;4.43;;
84138;SDS011;74250;51.528;6.748;2024-02-15T09:47:04;10.02;;;4.07;;
84138;SDS011;74250;51.528;6.748;2024-02-15T09:49:40;5.57;;;3.78;;
84138;SDS011;74250;51.528;6.748;2024-02-15T09:52:06;5.45;;;3.38;;
84138;SDS011;74250;51.528;6.748;2024-02-15T09:54:37;7.40;;;3.95;;
84138;SDS011;74250;51.528;6.748;2024-02-15T09:57:04;9.50;;;5.50;;
84138;SDS011;74250;51.528;6.748;2024-02-15T09:59:31;10.95;;;3.33;;
84138;SDS011;74250;51.528;6.748;2024-02-15T10:01:59;7.47;;;2.63;;
84138;SDS011;74250;51.528;6.748;2024-02-15T10:04:24;6.78;;;3.33;;
84138;SDS011;74250;51.528;6.748;2024-02-15T10:06:50;7.22;;;2.75;;
84138;SDS011;74250;51.528;6.748;2024-02-15T10:09:29;8.40;;;3.47;;
84138;SDS011;74250;51.528;6.748;2024-02-15T10:14:22;9.70;;;6.28;;
84138;SDS011;74250;51.528;6.748;2024-02-15T10:19:22;11.45;;;6.43;;
84138;SDS011;74250;51.528;6.748;2024-02-15T10:21:52;11.18;;;7.38;;
84138;SDS011;74250;51.528;6.748;2024-02-15T10:24:25;12.50;;;5.47;;
84138;SDS011;74250;51.528;6.748;2024-02-15T10:27:01;8.75;;;5.05;;
84138;SDS011;74250;51.528;6.748;2024-02-15T10:29:31;12.50;;;4.15;;
84138;SDS011;74250;51.528;6.748;2024-02-15T10:32:00;7.50;;;3.55;;
84138;SDS011;74250;51.528;6.748;2024-02-15T10:34:26;6.00;;;3.53;;
84138;SDS011;74250;51.528;6.748;2024-02-15T10:36:56;7.00;;;3.00;;
84138;SDS011;74250;51.528;6.748;2024-02-15T10:39:38;8.32;;;4.55;;
84138;SDS011;74250;51.528;6.748;2024-02-15T10:42:06;5.75;;;2.63;;
84138;SDS011;74250;51.528;6.748;2024-02-15T10:44:31;15.57;;;5.88;;
84138;SDS011;74250;51.528;6.748;2024-02-15T10:46:59;9.02;;;3.45;;
84138;SDS011;74250;51.528;6.748;2024-02-15T10:51:55;10.27;;;4.25;;
84138;SDS011;74250;51.528;6.748;2024-02-15T10:57:12;6.35;;;3.10;;
84138;SDS011;74250;51.528;6.748;2024-02-15T10:59:39;7.80;;;4.97;;
84138;SDS011;74250;51.528;6.748;2024-02-15T11:02:30;8.13;;;4.95;;
84138;SDS011;74250;51.528;6.748;2024-02-15T11:07:31;7.75;;;5.30;;
84138;SDS011;74250;51.528;6.748;2024-02-15T11:09:57;6.85;;;4.15;;
84138;SDS011;74250;51.528;6.748;2024-02-15T11:12:24;9.60;;;3.55;;
84138;SDS011;74250;51.528;6.748;2024-02-15T11:14:51;7.53;;;3.35;;
84138;SDS011;74250;51.528;6.748;2024-02-15T11:20:02;7.60;;;3.33;;
84138;SDS011;74250;51.528;6.748;2024-02-15T11:22:33;6.40;;;3.83;;
84138;SDS011;74250;51.528;6.748;2024-02-15T11:25:01;17.50;;;8.75;;
84138;SDS011;74250;51.528;6.748;2024-02-15T11:27:30;9.90;;;6.97;;
84138;SDS011;74250;51.528;6.748;2024-02-15T11:35:07;9.13;;;4.07;;
84138;SDS011;74250;51.528;6.748;2024-02-15T11:40:20;9.93;;;5.93;;
84138;SDS011;74250;51.528;6.748;2024-02-15T11:42:59;7.22;;;3.63;;
84138;SDS011;74250;51.528;6.748;2024-02-15T11:45:28;7.72;;;5.95;;
84138;SDS011;74250;51.528;6.748;2024-02-15T11:47:59;6.72;;;3.83;;
84138;SDS011;74250;51.528;6.748;2024-02-15T11:50:27;8.77;;;5.72;;
84138;SDS011;74250;51.528;6.748;2024-02-15T11:53:01;9.48;;;4.68;;
84138;SDS011;74250;51.528;6.748;2024-02-15T11:55:30;7.95;;;3.92;;
84138;SDS011;74250;51.528;6.748;2024-02-15T11:57:58;16.00;;;8.25;;
84138;SDS011;74250;51.528;6.748;2024-02-15T12:00:30;12.32;;;7.63;;
84138;SDS011;74250;51.528;6.748;2024-02-15T12:03:15;12.05;;;6.53;;
84138;SDS011;74250;51.528;6.748;2024-02-15T12:05:59;8.50;;;4.65;;
84138;SDS011;74250;51.528;6.748;2024-02-15T12:08:45;10.82;;;6.20;;
84138;SDS011;74250;51.528;6.748;2024-02-15T12:11:30;8.20;;;4.43;;
84138;SDS011;74250;51.528;6.748;2024-02-15T12:14:15;10.68;;;5.78;;
84138;SDS011;74250;51.528;6.748;2024-02-15T12:17:02;11.38;;;5.78;;
84138;SDS011;74250;51.528;6.748;2024-02-15T12:19:47;9.07;;;5.20;;
84138;SDS011;74250;51.528;6.748;2024-02-15T12:22:14;9.85;;;5.57;;
84138;SDS011;74250;51.528;6.748;2024-02-15T12:24:40;9.85;;;5.65;;
84138;SDS011;74250;51.528;6.748;2024-02-15T12:27:05;10.20;;;4.88;;
84138;SDS011;74250;51.528;6.748;2024-02-15T12:29:31;9.35;;;4.20;;
84138;SDS011;74250;51.528;6.748;2024-02-15T12:31:58;11.90;;;5.30;;
84138;SDS011;74250;51.528;6.748;2024-02-15T12:34:23;7.88;;;5.75;;
84138;SDS011;74250;51.528;6.748;2024-02-15T12:36:51;17.05;;;11.38;;
84138;SDS011;74250;51.528;6.748;2024-02-15T12:39:29;9.52;;;4.50;;
84138;SDS011;74250;51.528;6.748;2024-02-15T12:41:56;11.43;;;7.68;;
84138;SDS011;74250;51.528;6.748;2024-02-15T12:44:22;8.75;;;4.35;;
84138;SDS011;74250;51.528;6.748;2024-02-15T12:46:53;10.23;;;4.32;;
84138;SDS011;74250;51.528;6.748;2024-02-15T12:51:49;8.80;;;3.53;;
84138;SDS011;74250;51.528;6.748;2024-02-15T12:54:19;6.45;;;4.47;;
84138;SDS011;74250;51.528;6.748;2024-02-15T12:56:46;11.27;;;3.80;;
84138;SDS011;74250;51.528;6.748;2024-02-15T12:59:13;5.20;;;3.25;;
84138;SDS011;74250;51.528;6.748;2024-02-15T13:01:41;7.25;;;4.13;;
84138;SDS011;74250;51.528;6.748;2024-02-15T13:04:06;4.55;;;2.72;;
84138;SDS011;74250;51.528;6.748;2024-02-15T13:06:33;7.13;;;3.83;;
84138;SDS011;74250;51.528;6.748;2024-02-15T13:09:02;5.10;;;3.25;;
84138;SDS011;74250;51.528;6.748;2024-02-15T13:11:30;9.68;;;2.90;;
84138;SDS011;74250;51.528;6.748;2024-02-15T13:13:57;6.43;;;2.38;;
84138;SDS011;74250;51.528;6.748;2024-02-15T13:16:23;6.30;;;2.30;;
84138;SDS011;74250;51.528;6.748;2024-02-15T13:18:48;5.30;;;2.53;;
84138;SDS011;74250;51.528;6.748;2024-02-15T13:21:14;7.43;;;2.97;;
84138;SDS011;74250;51.528;6.748;2024-02-15T13:23:39;6.68;;;3.00;;
84138;SDS011;74250;51.528;6.748;2024-02-15T13:26:04;6.88;;;3.65;;
84138;SDS011;74250;51.528;6.748;2024-02-15T13:28:30;8.73;;;2.83;;
84138;SDS011;74250;51.528;6.748;2024-02-15T13:30:56;5.80;;;2.58;;
84138;SDS011;74250;51.528;6.748;2024-02-15T13:33:21;4.47;;;2.33;;
84138;SDS011;74250;51.528;6.748;2024-02-15T13:35:47;7.45;;;2.60;;
84138;SDS011;74250;51.528;6.748;2024-02-15T13:38:14;5.82;;;2.92;;
84138;SDS011;74250;51.528;6.748;2024-02-15T13:40:47;4.00;;;2.05;;
84138;SDS011;74250;51.528;6.748;2024-02-15T13:43:15;4.70;;;2.15;;
84138;SDS011;74250;51.528;6.748;2024-02-15T13:45:42;5.93;;;2.35;;
84138;SDS011;74250;51.528;6.748;2024-02-15T13:48:09;6.90;;;3.58;;
84138;SDS011;74250;51.528;6.748;2024-02-15T13:50:36;9.05;;;3.15;;
84138;SDS011;74250;51.528;6.748;2024-02-15T13:53:01;9.82;;;5.15;;
84138;SDS011;74250;51.528;6.748;2024-02-15T13:55:28;8.20;;;3.08;;
84138;SDS011;74250;51.528;6.748;2024-02-15T13:57:54;7.53;;;3.40;;
84138;SDS011;74250;51.528;6.748;2024-02-15T14:00:21;9.48;;;4.43;;
84138;SDS011;74250;51.528;6.748;2024-02-15T14:02:47;13.32;;;6.72;;
84138;SDS011;74250;51.528;6.748;2024-02-15T14:05:14;9.80;;;3.58;;
84138;SDS011;74250;51.528;6.748;2024-02-15T14:07:42;10.07;;;4.18;;
84138;SDS011;74250;51.528;6.748;2024-02-15T14:10:08;14.07;;;6.40;;
84138;SDS011;74250;51.528;6.748;2024-02-15T14:12:34;8.70;;;4.22;;
84138;SDS011;74250;51.528;6.748;2024-02-15T14:15:00;7.47;;;4.38;;
84138;SDS011;74250;51.528;6.748;2024-02-15T14:17:27;35.72;;;16.73;;
84138;SDS011;74250;51.528;6.748;2024-02-15T14:19:53;10.68;;;8.20;;
84138;SDS011;74250;51.528;6.748;2024-02-15T14:22:20;5.78;;;2.63;;
84138;SDS011;74250;51.528;6.748;2024-02-15T14:24:51;8.07;;;4.97;;
84138;SDS011;74250;51.528;6.748;2024-02-15T14:27:17;5.90;;;2.55;;
84138;SDS011;74250;51.528;6.748;2024-02-15T14:29:43;8.05;;;4.10;;
84138;SDS011;74250;51.528;6.748;2024-02-15T14:32:31;4.45;;;2.50;;
84138;SDS011;74250;51.528;6.748;2024-02-15T14:35:15;6.20;;;2.33;;
84138;SDS011;74250;51.528;6.748;2024-02-15T14:37:41;5.82;;;4.22;;
84138;SDS011;74250;51.528;6.748;2024-02-15T14:40:07;9.02;;;3.30;;
84138;SDS011;74250;51.528;6.748;2024-02-15T14:42:33;8.52;;;2.53;;
84138;SDS011;74250;51.528;6.748;2024-02-15T14:45:01;4.05;;;1.90;;
84138;SDS011;74250;51.528;6.748;2024-02-15T14:47:26;6.30;;;3.83;;
84138;SDS011;74250;51.528;6.748;2024-02-15T14:49:52;5.07;;;1.73;;
84138;SDS011;74250;51.528;6.748;2024-02-15T14:52:17;3.55;;;2.13;;
84138;SDS011;74250;51.528;6.748;2024-02-15T14:54:43;3.10;;;1.80;;
84138;SDS011;74250;51.528;6.748;2024-02-15T14:57:09;6.07;;;1.65;;
84138;SDS011;74250;51.528;6.748;2024-02-15T14:59:34;4.88;;;2.15;;
84138;SDS011;74250;51.528;6.748;2024-02-15T15:02:00;4.22;;;1.63;;
84138;SDS011;74250;51.528;6.748;2024-02-15T15:04:33;3.28;;;2.05;;
84138;SDS011;74250;51.528;6.748;2024-02-15T15:07:12;6.45;;;1.35;;
84138;SDS011;74250;51.528;6.748;2024-02-15T15:09:56;3.45;;;2.33;;
84138;SDS011;74250;51.528;6.748;2024-02-15T15:12:48;6.28;;;1.63;;
84138;SDS011;74250;51.528;6.748;2024-02-15T15:15:13;6.90;;;1.83;;
84138;SDS011;74250;51.528;6.748;2024-02-15T15:17:39;4.57;;;1.75;;
84138;SDS011;74250;51.528;6.748;2024-02-15T15:20:05;3.53;;;1.50;;